sensor_id;sensor_type;location;lat;lon;timestamp;temperature;humidity
20288;DHT22;10303;51.960;8.372;2022-07-29T00:00:56;22.10;57.50
20288;DHT22;10303;51.960;8.372;2022-07-29T00:03:22;22.20;57.60
20288;DHT22;10303;51.960;8.372;2022-07-29T00:05:49;22.20;57.50
20288;DHT22;10303;51.960;8.372;2022-07-29T00:08:15;22.10;57.50
20288;DHT22;10303;51.960;8.372;2022-07-29T00:10:42;22.10;57.60
20288;DHT22;10303;51.960;8.372;2022-07-29T00:13:08;22.10;58.20
20288;DHT22;10303;51.960;8.372;2022-07-29T00:15:34;22.10;57.60
20288;DHT22;10303;51.960;8.372;2022-07-29T00:18:00;22.10;57.70
20288;DHT22;10303;51.960;8.372;2022-07-29T00:20:27;22.10;57.80
20288;DHT22;10303;51.960;8.372;2022-07-29T00:22:53;22.10;57.80
20288;DHT22;10303;51.960;8.372;2022-07-29T00:25:19;22.10;57.90
20288;DHT22;10303;51.960;8.372;2022-07-29T00:27:45;22.10;57.90
20288;DHT22;10303;51.960;8.372;2022-07-29T00:30:14;22.10;58.10
20288;DHT22;10303;51.960;8.372;2022-07-29T00:32:40;22.10;58.00
20288;DHT22;10303;51.960;8.372;2022-07-29T00:35:06;22.10;58.10
20288;DHT22;10303;51.960;8.372;2022-07-29T00:38:16;22.10;58.10
20288;DHT22;10303;51.960;8.372;2022-07-29T00:40:44;22.10;58.10
20288;DHT22;10303;51.960;8.372;2022-07-29T00:43:11;22.10;58.00
20288;DHT22;10303;51.960;8.372;2022-07-29T00:45:40;22.00;58.30
20288;DHT22;10303;51.960;8.372;2022-07-29T00:48:06;22.00;58.10
20288;DHT22;10303;51.960;8.372;2022-07-29T00:50:35;22.00;58.10
20288;DHT22;10303;51.960;8.372;2022-07-29T00:53:03;22.00;58.10
20288;DHT22;10303;51.960;8.372;2022-07-29T00:55:30;22.00;58.30
20288;DHT22;10303;51.960;8.372;2022-07-29T00:57:58;22.00;58.30
20288;DHT22;10303;51.960;8.372;2022-07-29T01:00:26;22.00;58.50
20288;DHT22;10303;51.960;8.372;2022-07-29T01:02:54;22.00;58.50
20288;DHT22;10303;51.960;8.372;2022-07-29T01:05:22;22.00;58.50
20288;DHT22;10303;51.960;8.372;2022-07-29T01:07:51;22.00;58.60
20288;DHT22;10303;51.960;8.372;2022-07-29T01:10:20;21.90;58.60
20288;DHT22;10303;51.960;8.372;2022-07-29T01:12:50;21.90;58.80
20288;DHT22;10303;51.960;8.372;2022-07-29T01:15:17;21.90;58.90
20288;DHT22;10303;51.960;8.372;2022-07-29T01:21:03;21.90;59.10
20288;DHT22;10303;51.960;8.372;2022-07-29T01:26:57;21.90;59.30
20288;DHT22;10303;51.960;8.372;2022-07-29T01:29:45;21.80;59.10
20288;DHT22;10303;51.960;8.372;2022-07-29T01:32:26;21.80;59.30
20288;DHT22;10303;51.960;8.372;2022-07-29T01:37:48;21.70;59.60
20288;DHT22;10303;51.960;8.372;2022-07-29T01:40:46;21.70;59.30
20288;DHT22;10303;51.960;8.372;2022-07-29T01:43:19;21.70;59.50
20288;DHT22;10303;51.960;8.372;2022-07-29T01:45:55;21.70;59.90
20288;DHT22;10303;51.960;8.372;2022-07-29T01:48:39;21.70;59.50
20288;DHT22;10303;51.960;8.372;2022-07-29T01:51:20;21.70;59.70
20288;DHT22;10303;51.960;8.372;2022-07-29T01:54:04;21.60;59.70
20288;DHT22;10303;51.960;8.372;2022-07-29T01:56:42;21.60;59.80
20288;DHT22;10303;51.960;8.372;2022-07-29T01:59:11;21.60;59.70
20288;DHT22;10303;51.960;8.372;2022-07-29T02:01:39;21.60;59.50
20288;DHT22;10303;51.960;8.372;2022-07-29T02:04:09;21.60;59.60
20288;DHT22;10303;51.960;8.372;2022-07-29T02:06:38;21.60;59.60
20288;DHT22;10303;51.960;8.372;2022-07-29T02:09:08;21.60;59.60
20288;DHT22;10303;51.960;8.372;2022-07-29T02:11:37;21.60;59.50
20288;DHT22;10303;51.960;8.372;2022-07-29T02:14:07;21.50;59.70
20288;DHT22;10303;51.960;8.372;2022-07-29T02:16:35;21.50;60.00
20288;DHT22;10303;51.960;8.372;2022-07-29T02:19:04;21.50;60.00
20288;DHT22;10303;51.960;8.372;2022-07-29T02:21:32;21.50;60.00
20288;DHT22;10303;51.960;8.372;2022-07-29T02:24:01;21.50;60.10
20288;DHT22;10303;51.960;8.372;2022-07-29T02:26:29;21.50;60.10
20288;DHT22;10303;51.960;8.372;2022-07-29T02:28:57;21.50;60.00
20288;DHT22;10303;51.960;8.372;2022-07-29T02:31:28;21.50;60.00
20288;DHT22;10303;51.960;8.372;2022-07-29T02:33:58;21.40;60.00
20288;DHT22;10303;51.960;8.372;2022-07-29T02:36:26;21.50;60.10
20288;DHT22;10303;51.960;8.372;2022-07-29T02:38:55;21.50;60.10
20288;DHT22;10303;51.960;8.372;2022-07-29T02:41:42;21.50;60.30
20288;DHT22;10303;51.960;8.372;2022-07-29T02:44:13;21.40;60.80
20288;DHT22;10303;51.960;8.372;2022-07-29T02:46:59;21.40;60.40
20288;DHT22;10303;51.960;8.372;2022-07-29T02:58:05;21.40;61.00
20288;DHT22;10303;51.960;8.372;2022-07-29T03:00:40;21.30;60.70
20288;DHT22;10303;51.960;8.372;2022-07-29T03:03:14;21.30;61.00
20288;DHT22;10303;51.960;8.372;2022-07-29T03:05:41;21.30;61.30
20288;DHT22;10303;51.960;8.372;2022-07-29T03:08:10;21.30;60.90
20288;DHT22;10303;51.960;8.372;2022-07-29T03:10:43;21.30;61.30
20288;DHT22;10303;51.960;8.372;2022-07-29T03:13:11;21.20;61.20
20288;DHT22;10303;51.960;8.372;2022-07-29T03:15:38;21.20;61.20
20288;DHT22;10303;51.960;8.372;2022-07-29T03:18:06;21.20;61.20
20288;DHT22;10303;51.960;8.372;2022-07-29T03:20:33;21.20;61.40
20288;DHT22;10303;51.960;8.372;2022-07-29T03:22:59;21.10;61.10
20288;DHT22;10303;51.960;8.372;2022-07-29T03:25:25;21.10;61.40
20288;DHT22;10303;51.960;8.372;2022-07-29T03:27:52;21.10;61.40
20288;DHT22;10303;51.960;8.372;2022-07-29T03:30:18;21.10;61.50
20288;DHT22;10303;51.960;8.372;2022-07-29T03:32:44;21.10;61.60
20288;DHT22;10303;51.960;8.372;2022-07-29T03:35:10;21.00;61.60
20288;DHT22;10303;51.960;8.372;2022-07-29T03:37:36;21.00;61.60
20288;DHT22;10303;51.960;8.372;2022-07-29T03:40:05;21.00;61.60
20288;DHT22;10303;51.960;8.372;2022-07-29T03:42:36;21.00;62.10
20288;DHT22;10303;51.960;8.372;2022-07-29T03:45:07;21.00;62.20
20288;DHT22;10303;51.960;8.372;2022-07-29T03:47:40;20.90;62.30
20288;DHT22;10303;51.960;8.372;2022-07-29T03:50:11;20.90;62.40
20288;DHT22;10303;51.960;8.372;2022-07-29T03:52:40;20.90;62.40
20288;DHT22;10303;51.960;8.372;2022-07-29T03:55:08;20.90;62.40
20288;DHT22;10303;51.960;8.372;2022-07-29T03:57:35;20.80;62.40
20288;DHT22;10303;51.960;8.372;2022-07-29T04:00:04;20.80;62.30
20288;DHT22;10303;51.960;8.372;2022-07-29T04:02:32;20.80;62.80
20288;DHT22;10303;51.960;8.372;2022-07-29T04:04:58;20.70;62.70
20288;DHT22;10303;51.960;8.372;2022-07-29T04:07:25;20.70;62.70
20288;DHT22;10303;51.960;8.372;2022-07-29T04:09:51;20.70;62.80
20288;DHT22;10303;51.960;8.372;2022-07-29T04:12:17;20.70;63.10
20288;DHT22;10303;51.960;8.372;2022-07-29T04:14:43;20.70;63.10
20288;DHT22;10303;51.960;8.372;2022-07-29T04:17:09;20.60;63.10
20288;DHT22;10303;51.960;8.372;2022-07-29T04:19:35;20.60;63.20
20288;DHT22;10303;51.960;8.372;2022-07-29T04:22:01;20.60;63.20
20288;DHT22;10303;51.960;8.372;2022-07-29T04:24:27;20.60;63.20
20288;DHT22;10303;51.960;8.372;2022-07-29T04:26:54;20.60;63.30
20288;DHT22;10303;51.960;8.372;2022-07-29T04:29:20;20.60;63.30
20288;DHT22;10303;51.960;8.372;2022-07-29T04:31:46;20.60;63.50
20288;DHT22;10303;51.960;8.372;2022-07-29T04:34:12;20.60;63.60
20288;DHT22;10303;51.960;8.372;2022-07-29T04:36:38;20.50;63.80
20288;DHT22;10303;51.960;8.372;2022-07-29T04:39:04;20.50;64.10
20288;DHT22;10303;51.960;8.372;2022-07-29T04:41:30;20.50;64.60
20288;DHT22;10303;51.960;8.372;2022-07-29T04:43:56;20.60;64.60
20288;DHT22;10303;51.960;8.372;2022-07-29T04:46:22;20.60;64.50
20288;DHT22;10303;51.960;8.372;2022-07-29T04:48:48;20.60;64.60
20288;DHT22;10303;51.960;8.372;2022-07-29T04:51:15;20.60;64.60
20288;DHT22;10303;51.960;8.372;2022-07-29T04:53:41;20.60;64.70
20288;DHT22;10303;51.960;8.372;2022-07-29T04:56:07;20.60;64.60
20288;DHT22;10303;51.960;8.372;2022-07-29T04:58:36;20.60;64.70
20288;DHT22;10303;51.960;8.372;2022-07-29T05:01:03;20.60;65.10
20288;DHT22;10303;51.960;8.372;2022-07-29T05:03:29;20.70;64.90
20288;DHT22;10303;51.960;8.372;2022-07-29T05:05:55;20.70;64.90
20288;DHT22;10303;51.960;8.372;2022-07-29T05:08:20;20.70;65.10
20288;DHT22;10303;51.960;8.372;2022-07-29T05:10:47;20.80;65.70
20288;DHT22;10303;51.960;8.372;2022-07-29T05:13:13;20.80;65.70
20288;DHT22;10303;51.960;8.372;2022-07-29T05:15:39;20.80;65.70
20288;DHT22;10303;51.960;8.372;2022-07-29T05:18:05;20.80;65.70
20288;DHT22;10303;51.960;8.372;2022-07-29T05:20:32;20.80;65.70
20288;DHT22;10303;51.960;8.372;2022-07-29T05:23:00;20.90;65.70
20288;DHT22;10303;51.960;8.372;2022-07-29T05:25:27;20.90;65.80
20288;DHT22;10303;51.960;8.372;2022-07-29T05:27:54;21.00;65.80
20288;DHT22;10303;51.960;8.372;2022-07-29T05:30:21;21.00;66.00
20288;DHT22;10303;51.960;8.372;2022-07-29T05:32:47;21.00;66.50
20288;DHT22;10303;51.960;8.372;2022-07-29T05:35:14;21.00;66.10
20288;DHT22;10303;51.960;8.372;2022-07-29T05:37:40;21.00;66.00
20288;DHT22;10303;51.960;8.372;2022-07-29T05:40:07;21.10;66.00
20288;DHT22;10303;51.960;8.372;2022-07-29T05:42:34;21.10;65.80
20288;DHT22;10303;51.960;8.372;2022-07-29T05:45:01;21.20;66.00
20288;DHT22;10303;51.960;8.372;2022-07-29T05:47:27;21.20;66.10
20288;DHT22;10303;51.960;8.372;2022-07-29T05:49:53;21.20;65.90
20288;DHT22;10303;51.960;8.372;2022-07-29T05:52:20;21.30;66.00
20288;DHT22;10303;51.960;8.372;2022-07-29T05:54:46;21.30;65.90
20288;DHT22;10303;51.960;8.372;2022-07-29T05:57:21;21.30;65.90
20288;DHT22;10303;51.960;8.372;2022-07-29T05:59:48;21.40;66.20
20288;DHT22;10303;51.960;8.372;2022-07-29T06:02:16;21.40;65.90
20288;DHT22;10303;51.960;8.372;2022-07-29T06:04:42;21.40;65.70
20288;DHT22;10303;51.960;8.372;2022-07-29T06:07:08;21.40;65.70
20288;DHT22;10303;51.960;8.372;2022-07-29T06:09:34;21.50;65.80
20288;DHT22;10303;51.960;8.372;2022-07-29T06:12:01;21.50;66.70
20288;DHT22;10303;51.960;8.372;2022-07-29T06:14:27;21.50;65.90
20288;DHT22;10303;51.960;8.372;2022-07-29T06:16:54;21.50;66.10
20288;DHT22;10303;51.960;8.372;2022-07-29T06:19:20;21.60;66.10
20288;DHT22;10303;51.960;8.372;2022-07-29T06:21:47;21.70;66.30
20288;DHT22;10303;51.960;8.372;2022-07-29T06:24:14;21.70;66.40
20288;DHT22;10303;51.960;8.372;2022-07-29T06:26:41;21.70;66.50
20288;DHT22;10303;51.960;8.372;2022-07-29T06:29:08;21.80;66.50
20288;DHT22;10303;51.960;8.372;2022-07-29T06:31:36;21.80;66.30
20288;DHT22;10303;51.960;8.372;2022-07-29T06:34:03;21.90;66.50
20288;DHT22;10303;51.960;8.372;2022-07-29T06:36:29;22.00;66.70
20288;DHT22;10303;51.960;8.372;2022-07-29T06:38:55;22.00;66.60
20288;DHT22;10303;51.960;8.372;2022-07-29T06:41:21;22.00;66.60
20288;DHT22;10303;51.960;8.372;2022-07-29T06:43:48;22.10;66.80
20288;DHT22;10303;51.960;8.372;2022-07-29T06:46:18;22.10;66.70
20288;DHT22;10303;51.960;8.372;2022-07-29T06:48:45;22.20;66.60
20288;DHT22;10303;51.960;8.372;2022-07-29T06:51:12;22.20;66.30
20288;DHT22;10303;51.960;8.372;2022-07-29T06:53:39;22.20;66.10
20288;DHT22;10303;51.960;8.372;2022-07-29T06:56:06;22.30;65.90
20288;DHT22;10303;51.960;8.372;2022-07-29T06:58:38;22.40;66.00
20288;DHT22;10303;51.960;8.372;2022-07-29T07:01:05;22.40;65.90
20288;DHT22;10303;51.960;8.372;2022-07-29T07:03:32;22.40;66.40
20288;DHT22;10303;51.960;8.372;2022-07-29T07:05:58;22.50;66.60
20288;DHT22;10303;51.960;8.372;2022-07-29T07:08:24;22.50;66.10
20288;DHT22;10303;51.960;8.372;2022-07-29T07:10:51;22.50;66.20
20288;DHT22;10303;51.960;8.372;2022-07-29T07:13:18;22.60;66.40
20288;DHT22;10303;51.960;8.372;2022-07-29T07:15:45;22.60;66.30
20288;DHT22;10303;51.960;8.372;2022-07-29T07:18:14;22.70;66.20
20288;DHT22;10303;51.960;8.372;2022-07-29T07:20:41;22.70;66.00
20288;DHT22;10303;51.960;8.372;2022-07-29T07:23:07;22.70;66.00
20288;DHT22;10303;51.960;8.372;2022-07-29T07:25:33;22.80;66.10
20288;DHT22;10303;51.960;8.372;2022-07-29T07:27:59;22.80;66.00
20288;DHT22;10303;51.960;8.372;2022-07-29T07:30:26;22.90;66.00
20288;DHT22;10303;51.960;8.372;2022-07-29T07:32:53;22.90;66.10
20288;DHT22;10303;51.960;8.372;2022-07-29T07:35:20;22.90;66.10
20288;DHT22;10303;51.960;8.372;2022-07-29T07:37:46;23.00;65.80
20288;DHT22;10303;51.960;8.372;2022-07-29T07:40:13;23.00;65.90
20288;DHT22;10303;51.960;8.372;2022-07-29T07:42:42;23.00;66.00
20288;DHT22;10303;51.960;8.372;2022-07-29T07:45:09;23.10;66.20
20288;DHT22;10303;51.960;8.372;2022-07-29T07:47:37;23.10;66.10
20288;DHT22;10303;51.960;8.372;2022-07-29T07:50:05;23.20;66.00
20288;DHT22;10303;51.960;8.372;2022-07-29T07:52:33;23.20;66.00
20288;DHT22;10303;51.960;8.372;2022-07-29T07:55:00;23.30;65.80
20288;DHT22;10303;51.960;8.372;2022-07-29T07:57:26;23.30;65.60
20288;DHT22;10303;51.960;8.372;2022-07-29T07:59:52;23.40;65.90
20288;DHT22;10303;51.960;8.372;2022-07-29T08:02:18;23.40;65.70
20288;DHT22;10303;51.960;8.372;2022-07-29T08:04:44;23.50;66.00
20288;DHT22;10303;51.960;8.372;2022-07-29T08:07:10;23.50;66.00
20288;DHT22;10303;51.960;8.372;2022-07-29T08:09:36;23.60;66.10
20288;DHT22;10303;51.960;8.372;2022-07-29T08:12:03;23.70;66.50
20288;DHT22;10303;51.960;8.372;2022-07-29T08:14:31;23.70;67.20
20288;DHT22;10303;51.960;8.372;2022-07-29T08:16:58;23.80;66.80
20288;DHT22;10303;51.960;8.372;2022-07-29T08:19:25;24.00;67.00
20288;DHT22;10303;51.960;8.372;2022-07-29T08:21:51;24.10;66.90
20288;DHT22;10303;51.960;8.372;2022-07-29T08:24:19;24.30;67.60
20288;DHT22;10303;51.960;8.372;2022-07-29T08:27:04;24.40;67.00
20288;DHT22;10303;51.960;8.372;2022-07-29T08:29:31;24.60;66.90
20288;DHT22;10303;51.960;8.372;2022-07-29T08:31:57;24.80;68.20
20288;DHT22;10303;51.960;8.372;2022-07-29T08:34:23;25.00;68.00
20288;DHT22;10303;51.960;8.372;2022-07-29T08:36:50;25.20;66.70
20288;DHT22;10303;51.960;8.372;2022-07-29T08:39:20;25.40;66.20
20288;DHT22;10303;51.960;8.372;2022-07-29T08:41:47;25.70;66.10
20288;DHT22;10303;51.960;8.372;2022-07-29T08:44:15;25.90;65.90
20288;DHT22;10303;51.960;8.372;2022-07-29T08:46:43;26.20;65.60
20288;DHT22;10303;51.960;8.372;2022-07-29T08:49:09;26.40;65.40
20288;DHT22;10303;51.960;8.372;2022-07-29T08:51:38;26.60;64.30
20288;DHT22;10303;51.960;8.372;2022-07-29T08:54:06;26.70;63.30
20288;DHT22;10303;51.960;8.372;2022-07-29T08:56:34;26.90;62.70
20288;DHT22;10303;51.960;8.372;2022-07-29T08:59:04;27.10;63.00
20288;DHT22;10303;51.960;8.372;2022-07-29T09:01:33;27.20;63.00
20288;DHT22;10303;51.960;8.372;2022-07-29T09:04:01;27.40;63.70
20288;DHT22;10303;51.960;8.372;2022-07-29T09:06:32;27.50;61.80
20288;DHT22;10303;51.960;8.372;2022-07-29T09:09:02;27.70;62.10
20288;DHT22;10303;51.960;8.372;2022-07-29T09:11:29;27.90;62.40
20288;DHT22;10303;51.960;8.372;2022-07-29T09:13:57;28.10;62.00
20288;DHT22;10303;51.960;8.372;2022-07-29T09:16:23;28.30;62.10
20288;DHT22;10303;51.960;8.372;2022-07-29T09:18:49;28.50;61.60
20288;DHT22;10303;51.960;8.372;2022-07-29T09:21:17;28.70;61.00
20288;DHT22;10303;51.960;8.372;2022-07-29T09:26:42;29.20;60.30
20288;DHT22;10303;51.960;8.372;2022-07-29T09:29:14;29.40;59.80
20288;DHT22;10303;51.960;8.372;2022-07-29T09:31:44;29.60;59.30
20288;DHT22;10303;51.960;8.372;2022-07-29T09:34:14;29.80;58.50
20288;DHT22;10303;51.960;8.372;2022-07-29T09:36:43;29.90;58.30
20288;DHT22;10303;51.960;8.372;2022-07-29T09:39:09;30.10;57.60
20288;DHT22;10303;51.960;8.372;2022-07-29T09:41:53;30.30;57.50
20288;DHT22;10303;51.960;8.372;2022-07-29T09:44:24;30.50;57.30
20288;DHT22;10303;51.960;8.372;2022-07-29T09:47:01;30.60;57.20
20288;DHT22;10303;51.960;8.372;2022-07-29T09:49:36;30.70;56.70
20288;DHT22;10303;51.960;8.372;2022-07-29T09:52:17;30.90;56.70
20288;DHT22;10303;51.960;8.372;2022-07-29T09:54:43;31.10;57.80
20288;DHT22;10303;51.960;8.372;2022-07-29T09:57:25;31.20;56.60
20288;DHT22;10303;51.960;8.372;2022-07-29T10:00:06;31.40;55.90
20288;DHT22;10303;51.960;8.372;2022-07-29T10:02:42;31.50;54.60
20288;DHT22;10303;51.960;8.372;2022-07-29T10:05:24;31.60;55.90
20288;DHT22;10303;51.960;8.372;2022-07-29T10:07:55;31.80;56.00
20288;DHT22;10303;51.960;8.372;2022-07-29T10:10:29;31.90;56.50
20288;DHT22;10303;51.960;8.372;2022-07-29T10:13:12;32.00;56.80
20288;DHT22;10303;51.960;8.372;2022-07-29T10:15:41;32.20;54.50
20288;DHT22;10303;51.960;8.372;2022-07-29T10:18:12;32.30;55.20
20288;DHT22;10303;51.960;8.372;2022-07-29T10:20:39;32.40;53.30
20288;DHT22;10303;51.960;8.372;2022-07-29T10:23:06;32.40;53.80
20288;DHT22;10303;51.960;8.372;2022-07-29T10:25:32;32.50;53.20
20288;DHT22;10303;51.960;8.372;2022-07-29T10:27:58;32.50;53.00
20288;DHT22;10303;51.960;8.372;2022-07-29T10:30:25;32.60;52.60
20288;DHT22;10303;51.960;8.372;2022-07-29T10:36:07;32.50;53.00
20288;DHT22;10303;51.960;8.372;2022-07-29T10:38:51;32.50;52.40
20288;DHT22;10303;51.960;8.372;2022-07-29T10:44:23;32.50;52.30
20288;DHT22;10303;51.960;8.372;2022-07-29T10:46:52;32.40;52.10
20288;DHT22;10303;51.960;8.372;2022-07-29T10:49:20;32.40;52.00
20288;DHT22;10303;51.960;8.372;2022-07-29T10:54:48;32.40;51.40
20288;DHT22;10303;51.960;8.372;2022-07-29T10:57:26;32.40;51.90
20288;DHT22;10303;51.960;8.372;2022-07-29T11:05:10;32.40;50.70
20288;DHT22;10303;51.960;8.372;2022-07-29T11:10:45;32.40;51.30
20288;DHT22;10303;51.960;8.372;2022-07-29T11:13:12;32.40;51.10
20288;DHT22;10303;51.960;8.372;2022-07-29T11:15:57;32.40;51.10
20288;DHT22;10303;51.960;8.372;2022-07-29T11:18:24;32.50;50.80
20288;DHT22;10303;51.960;8.372;2022-07-29T11:20:51;32.50;51.80
20288;DHT22;10303;51.960;8.372;2022-07-29T11:39:43;32.50;51.00
20288;DHT22;10303;51.960;8.372;2022-07-29T11:45:15;32.40;51.10
20288;DHT22;10303;51.960;8.372;2022-07-29T11:47:53;32.50;51.10
20288;DHT22;10303;51.960;8.372;2022-07-29T11:50:35;32.60;51.40
20288;DHT22;10303;51.960;8.372;2022-07-29T11:53:12;32.70;51.10
20288;DHT22;10303;51.960;8.372;2022-07-29T11:55:40;32.70;50.10
20288;DHT22;10303;51.960;8.372;2022-07-29T11:58:06;32.80;50.00
20288;DHT22;10303;51.960;8.372;2022-07-29T12:00:38;32.90;49.30
20288;DHT22;10303;51.960;8.372;2022-07-29T12:03:08;32.90;49.90
20288;DHT22;10303;51.960;8.372;2022-07-29T12:05:38;33.00;50.20
20288;DHT22;10303;51.960;8.372;2022-07-29T12:10:42;33.20;50.00
20288;DHT22;10303;51.960;8.372;2022-07-29T12:13:09;33.20;49.30
20288;DHT22;10303;51.960;8.372;2022-07-29T12:15:36;33.30;49.70
20288;DHT22;10303;51.960;8.372;2022-07-29T12:18:13;33.30;49.30
20288;DHT22;10303;51.960;8.372;2022-07-29T12:20:41;33.40;49.20
20288;DHT22;10303;51.960;8.372;2022-07-29T12:23:09;33.40;49.30
20288;DHT22;10303;51.960;8.372;2022-07-29T12:25:38;33.50;48.90
20288;DHT22;10303;51.960;8.372;2022-07-29T12:28:09;33.50;48.90
20288;DHT22;10303;51.960;8.372;2022-07-29T12:30:43;33.50;48.20
20288;DHT22;10303;51.960;8.372;2022-07-29T12:36:01;33.50;47.90
20288;DHT22;10303;51.960;8.372;2022-07-29T12:38:29;33.40;48.10
20288;DHT22;10303;51.960;8.372;2022-07-29T12:40:56;33.40;49.00
20288;DHT22;10303;51.960;8.372;2022-07-29T12:43:24;33.40;48.90
20288;DHT22;10303;51.960;8.372;2022-07-29T12:45:55;33.40;49.30
20288;DHT22;10303;51.960;8.372;2022-07-29T12:48:42;33.40;48.40
20288;DHT22;10303;51.960;8.372;2022-07-29T12:51:10;33.60;48.50
20288;DHT22;10303;51.960;8.372;2022-07-29T12:53:38;33.60;48.30
20288;DHT22;10303;51.960;8.372;2022-07-29T12:56:05;33.60;47.90
20288;DHT22;10303;51.960;8.372;2022-07-29T12:58:34;33.70;48.20
20288;DHT22;10303;51.960;8.372;2022-07-29T13:01:13;33.70;48.60
20288;DHT22;10303;51.960;8.372;2022-07-29T13:09:17;33.50;48.40
20288;DHT22;10303;51.960;8.372;2022-07-29T13:11:46;33.50;48.40
20288;DHT22;10303;51.960;8.372;2022-07-29T13:14:34;33.40;47.80
20288;DHT22;10303;51.960;8.372;2022-07-29T13:17:11;33.30;48.10
20288;DHT22;10303;51.960;8.372;2022-07-29T13:19:47;33.20;48.00
20288;DHT22;10303;51.960;8.372;2022-07-29T13:22:20;33.00;48.40
20288;DHT22;10303;51.960;8.372;2022-07-29T13:24:54;33.00;48.40
20288;DHT22;10303;51.960;8.372;2022-07-29T13:27:26;32.90;48.60
20288;DHT22;10303;51.960;8.372;2022-07-29T13:29:54;32.70;49.30
20288;DHT22;10303;51.960;8.372;2022-07-29T13:32:24;32.60;50.40
20288;DHT22;10303;51.960;8.372;2022-07-29T13:34:51;32.50;50.80
20288;DHT22;10303;51.960;8.372;2022-07-29T13:37:18;32.40;50.90
20288;DHT22;10303;51.960;8.372;2022-07-29T13:39:45;32.30;50.60
20288;DHT22;10303;51.960;8.372;2022-07-29T13:42:13;32.10;50.70
20288;DHT22;10303;51.960;8.372;2022-07-29T13:44:40;32.00;50.60
20288;DHT22;10303;51.960;8.372;2022-07-29T13:47:07;31.90;51.10
20288;DHT22;10303;51.960;8.372;2022-07-29T13:49:33;31.80;50.80
20288;DHT22;10303;51.960;8.372;2022-07-29T13:52:01;31.60;51.00
20288;DHT22;10303;51.960;8.372;2022-07-29T13:54:28;31.50;51.10
20288;DHT22;10303;51.960;8.372;2022-07-29T13:56:54;31.50;51.30
20288;DHT22;10303;51.960;8.372;2022-07-29T13:59:20;31.40;51.40
20288;DHT22;10303;51.960;8.372;2022-07-29T14:01:45;31.30;51.40
20288;DHT22;10303;51.960;8.372;2022-07-29T14:04:13;31.20;51.20
20288;DHT22;10303;51.960;8.372;2022-07-29T14:06:39;31.10;51.30
20288;DHT22;10303;51.960;8.372;2022-07-29T14:09:05;31.00;51.50
20288;DHT22;10303;51.960;8.372;2022-07-29T14:11:35;31.00;51.80
20288;DHT22;10303;51.960;8.372;2022-07-29T14:14:01;30.90;51.90
20288;DHT22;10303;51.960;8.372;2022-07-29T14:16:27;30.90;51.50
20288;DHT22;10303;51.960;8.372;2022-07-29T14:18:53;30.90;51.50
20288;DHT22;10303;51.960;8.372;2022-07-29T14:21:19;30.90;52.50
20288;DHT22;10303;51.960;8.372;2022-07-29T14:23:45;30.80;51.90
20288;DHT22;10303;51.960;8.372;2022-07-29T14:26:11;30.80;51.60
20288;DHT22;10303;51.960;8.372;2022-07-29T14:28:36;30.70;51.20
20288;DHT22;10303;51.960;8.372;2022-07-29T14:31:02;30.70;50.90
20288;DHT22;10303;51.960;8.372;2022-07-29T14:33:28;30.60;51.00
20288;DHT22;10303;51.960;8.372;2022-07-29T14:35:54;30.60;51.00
20288;DHT22;10303;51.960;8.372;2022-07-29T14:38:20;30.60;51.00
20288;DHT22;10303;51.960;8.372;2022-07-29T14:40:46;30.50;51.10
20288;DHT22;10303;51.960;8.372;2022-07-29T14:43:13;30.40;50.90
20288;DHT22;10303;51.960;8.372;2022-07-29T14:45:39;30.30;50.90
20288;DHT22;10303;51.960;8.372;2022-07-29T14:48:06;30.30;51.50
20288;DHT22;10303;51.960;8.372;2022-07-29T14:50:32;30.30;51.70
20288;DHT22;10303;51.960;8.372;2022-07-29T14:53:00;30.20;51.70
20288;DHT22;10303;51.960;8.372;2022-07-29T14:55:26;30.20;51.50
20288;DHT22;10303;51.960;8.372;2022-07-29T14:57:52;30.10;51.60
20288;DHT22;10303;51.960;8.372;2022-07-29T15:00:19;30.10;51.70
20288;DHT22;10303;51.960;8.372;2022-07-29T15:02:46;30.00;52.30
20288;DHT22;10303;51.960;8.372;2022-07-29T15:05:13;30.00;52.90
20288;DHT22;10303;51.960;8.372;2022-07-29T15:07:39;29.90;52.90
20288;DHT22;10303;51.960;8.372;2022-07-29T15:10:05;29.80;53.40
20288;DHT22;10303;51.960;8.372;2022-07-29T15:12:32;29.80;53.80
20288;DHT22;10303;51.960;8.372;2022-07-29T15:14:58;29.70;53.60
20288;DHT22;10303;51.960;8.372;2022-07-29T15:17:24;29.60;53.40
20288;DHT22;10303;51.960;8.372;2022-07-29T15:19:50;29.60;53.20
20288;DHT22;10303;51.960;8.372;2022-07-29T15:22:16;29.50;53.10
20288;DHT22;10303;51.960;8.372;2022-07-29T15:24:42;29.40;53.00
20288;DHT22;10303;51.960;8.372;2022-07-29T15:27:10;29.30;53.20
20288;DHT22;10303;51.960;8.372;2022-07-29T15:29:43;29.30;53.10
20288;DHT22;10303;51.960;8.372;2022-07-29T15:32:09;29.20;53.10
20288;DHT22;10303;51.960;8.372;2022-07-29T15:34:37;29.10;53.00
20288;DHT22;10303;51.960;8.372;2022-07-29T15:37:04;29.10;53.30
20288;DHT22;10303;51.960;8.372;2022-07-29T15:39:30;29.00;53.30
20288;DHT22;10303;51.960;8.372;2022-07-29T15:41:57;28.90;53.50
20288;DHT22;10303;51.960;8.372;2022-07-29T15:44:25;28.90;53.80
20288;DHT22;10303;51.960;8.372;2022-07-29T15:46:51;28.80;54.10
20288;DHT22;10303;51.960;8.372;2022-07-29T15:49:32;28.70;54.50
20288;DHT22;10303;51.960;8.372;2022-07-29T15:52:05;28.60;54.40
20288;DHT22;10303;51.960;8.372;2022-07-29T15:54:35;28.50;54.40
20288;DHT22;10303;51.960;8.372;2022-07-29T15:57:02;28.50;54.40
20288;DHT22;10303;51.960;8.372;2022-07-29T15:59:29;28.40;54.40
20288;DHT22;10303;51.960;8.372;2022-07-29T16:01:55;28.40;54.60
20288;DHT22;10303;51.960;8.372;2022-07-29T16:04:21;28.30;54.60
20288;DHT22;10303;51.960;8.372;2022-07-29T16:06:48;28.20;54.70
20288;DHT22;10303;51.960;8.372;2022-07-29T16:09:15;28.10;54.70
20288;DHT22;10303;51.960;8.372;2022-07-29T16:11:42;28.00;54.90
20288;DHT22;10303;51.960;8.372;2022-07-29T16:14:11;27.90;55.00
20288;DHT22;10303;51.960;8.372;2022-07-29T16:16:37;27.80;55.40
20288;DHT22;10303;51.960;8.372;2022-07-29T16:19:04;27.70;55.30
20288;DHT22;10303;51.960;8.372;2022-07-29T16:21:31;27.60;55.70
20288;DHT22;10303;51.960;8.372;2022-07-29T16:23:58;27.60;55.90
20288;DHT22;10303;51.960;8.372;2022-07-29T16:26:25;27.50;55.90
20288;DHT22;10303;51.960;8.372;2022-07-29T16:28:51;27.40;56.00
20288;DHT22;10303;51.960;8.372;2022-07-29T16:31:17;27.40;56.00
20288;DHT22;10303;51.960;8.372;2022-07-29T16:33:46;27.30;56.10
20288;DHT22;10303;51.960;8.372;2022-07-29T16:36:13;27.20;56.70
20288;DHT22;10303;51.960;8.372;2022-07-29T16:38:38;27.20;56.10
20288;DHT22;10303;51.960;8.372;2022-07-29T16:41:07;27.10;56.10
20288;DHT22;10303;51.960;8.372;2022-07-29T16:43:33;27.10;56.30
20288;DHT22;10303;51.960;8.372;2022-07-29T16:45:59;27.10;56.40
20288;DHT22;10303;51.960;8.372;2022-07-29T16:48:25;27.00;56.40